Time;durP1;ratioP1;P1;durP2;ratioP2;P2;SDS_P1;SDS_P2;PMS_P1;PMS_P2;Temp;Humidity;BMP_temperature;BMP_pressure;BME280_temperature;BME280_humidity;BME280_pressure;Samples;Min_cycle;Max_cycle;Signal;HPM_P1;HPM_P2
2022/09/29 00:02:12;;;;;;;3.83;3.53;;;;;;;;;;5054620;28;20202;-86
2022/09/29 00:04:39;;;;;;;5.10;3.47;;;;;;;;;;5054356;28;20226;-87
2022/09/29 00:07:06;;;;;;;5.40;3.53;;;;;;;;;;5054613;28;20674;-86
2022/09/29 00:09:33;;;;;;;4.50;3.60;;;;;;;;;;5034342;28;20694;-87
2022/09/29 00:12:01;;;;;;;5.53;3.63;;;;;;;;;;5038444;28;20202;-86
2022/09/29 00:14:28;;;;;;;3.70;3.40;;;;;;;;;;5053945;28;20694;-87
2022/09/29 00:16:56;;;;;;;6.40;3.47;;;;;;;;;;5054751;28;20233;-87
2022/09/29 00:19:24;;;;;;;3.67;3.37;;;;;;;;;;5054018;28;20230;-86
2022/09/29 00:21:51;;;;;;;3.40;3.07;;;;;;;;;;5060994;28;20206;-86
2022/09/29 00:24:18;;;;;;;4.70;3.13;;;;;;;;;;5058700;28;20233;-86
2022/09/29 00:26:46;;;;;;;5.67;3.50;;;;;;;;;;5059232;28;20619;-86
2022/09/29 00:29:13;;;;;;;3.70;3.40;;;;;;;;;;5056632;28;20238;-86
2022/09/29 00:31:40;;;;;;;5.87;3.37;;;;;;;;;;5066524;28;20216;-87
2022/09/29 00:34:09;;;;;;;4.10;3.40;;;;;;;;;;5059890;28;20752;-86
2022/09/29 00:36:37;;;;;;;5.60;3.47;;;;;;;;;;5058015;28;20843;-86
2022/09/29 00:39:04;;;;;;;5.37;3.17;;;;;;;;;;5059656;28;20253;-86
2022/09/29 00:41:32;;;;;;;3.13;2.83;;;;;;;;;;5058116;28;20724;-86
2022/09/29 00:44:00;;;;;;;3.47;3.10;;;;;;;;;;5057080;28;20230;-86
2022/09/29 00:46:34;;;;;;;4.13;3.63;;;;;;;;;;5059737;28;20244;-86
2022/09/29 00:49:03;;;;;;;5.17;3.60;;;;;;;;;;5056149;28;20241;-86
2022/09/29 00:51:35;;;;;;;9.33;3.60;;;;;;;;;;5058071;28;20213;-87
2022/09/29 00:54:03;;;;;;;4.50;3.20;;;;;;;;;;5058350;28;20240;-86
2022/09/29 00:56:31;;;;;;;3.17;2.97;;;;;;;;;;5056834;28;20226;-87
2022/09/29 00:59:00;;;;;;;3.43;3.23;;;;;;;;;;5058870;28;20297;-86
2022/09/29 01:01:30;;;;;;;3.30;2.80;;;;;;;;;;5057841;28;20202;-86
2022/09/29 01:04:00;;;;;;;3.87;3.17;;;;;;;;;;5056282;28;20233;-87
2022/09/29 01:06:29;;;;;;;3.23;3.03;;;;;;;;;;5057709;28;20230;-88
2022/09/29 01:09:00;;;;;;;5.83;3.10;;;;;;;;;;5056346;28;20234;-86
2022/09/29 01:11:28;;;;;;;3.60;3.00;;;;;;;;;;5057550;28;20332;-86
2022/09/29 01:14:00;;;;;;;3.67;2.73;;;;;;;;;;5057529;28;20238;-87
2022/09/29 01:16:29;;;;;;;8.50;3.17;;;;;;;;;;5056277;28;20298;-86
2022/09/29 01:18:57;;;;;;;8.37;3.07;;;;;;;;;;5054698;28;20321;-86
2022/09/29 01:21:28;;;;;;;3.17;2.87;;;;;;;;;;5053894;28;20197;-86
2022/09/29 01:24:07;;;;;;;3.33;2.70;;;;;;;;;;5037192;28;20225;-88
2022/09/29 01:26:46;;;;;;;3.10;2.90;;;;;;;;;;5053259;28;20321;-87
2022/09/29 01:29:41;;;;;;;4.40;3.17;;;;;;;;;;5052908;28;20729;-86
2022/09/29 01:32:12;;;;;;;3.30;3.00;;;;;;;;;;5053183;28;20678;-87
2022/09/29 01:34:44;;;;;;;4.37;3.33;;;;;;;;;;5052684;28;20234;-87
2022/09/29 01:37:16;;;;;;;3.87;3.03;;;;;;;;;;5053083;28;20240;-86
2022/09/29 01:39:46;;;;;;;3.83;3.00;;;;;;;;;;5051797;28;20226;-87
2022/09/29 01:42:16;;;;;;;3.63;2.77;;;;;;;;;;5052861;28;20244;-86
2022/09/29 01:44:46;;;;;;;4.67;3.40;;;;;;;;;;5052553;28;20233;-86
2022/09/29 01:47:17;;;;;;;3.73;3.40;;;;;;;;;;5053154;28;20190;-86
2022/09/29 01:49:46;;;;;;;4.00;3.43;;;;;;;;;;5052409;28;20234;-86
2022/09/29 01:52:16;;;;;;;3.97;3.57;;;;;;;;;;5053191;28;20281;-87
2022/09/29 01:54:55;;;;;;;3.83;3.27;;;;;;;;;;5052308;28;20236;-87
2022/09/29 01:57:27;;;;;;;6.83;3.40;;;;;;;;;;5053172;28;20198;-86
2022/09/29 01:59:57;;;;;;;3.60;3.30;;;;;;;;;;5052610;28;20697;-86
2022/09/29 02:02:28;;;;;;;3.23;2.93;;;;;;;;;;5053392;28;20190;-86
2022/09/29 02:04:58;;;;;;;3.83;2.97;;;;;;;;;;5052708;28;20233;-87
2022/09/29 02:07:30;;;;;;;6.30;3.43;;;;;;;;;;5053237;28;20198;-86
2022/09/29 02:10:01;;;;;;;4.47;3.30;;;;;;;;;;5052558;28;20240;-87
2022/09/29 02:12:31;;;;;;;3.03;2.80;;;;;;;;;;5053122;28;20209;-87
2022/09/29 02:14:59;;;;;;;7.33;3.23;;;;;;;;;;5052443;28;20234;-87
2022/09/29 02:17:30;;;;;;;3.50;3.20;;;;;;;;;;5053459;28;20618;-87
2022/09/29 02:19:57;;;;;;;3.47;3.00;;;;;;;;;;5052127;28;20237;-87
2022/09/29 02:22:24;;;;;;;4.93;3.10;;;;;;;;;;5052965;28;20206;-87
2022/09/29 02:24:53;;;;;;;3.53;2.80;;;;;;;;;;5052371;28;20250;-87
2022/09/29 02:27:21;;;;;;;6.17;3.10;;;;;;;;;;5052994;28;20206;-87
2022/09/29 02:29:48;;;;;;;6.83;3.33;;;;;;;;;;5053521;28;20229;-86
2022/09/29 02:32:16;;;;;;;3.37;3.03;;;;;;;;;;5054053;28;20604;-87
2022/09/29 02:34:55;;;;;;;5.27;3.30;;;;;;;;;;5053010;28;20308;-86
2022/09/29 02:37:28;;;;;;;2.90;2.70;;;;;;;;;;5053811;28;20191;-87
2022/09/29 02:40:05;;;;;;;3.23;2.97;;;;;;;;;;5053341;28;20237;-86
2022/09/29 02:42:37;;;;;;;3.53;2.90;;;;;;;;;;5054208;28;20190;-86
2022/09/29 02:45:15;;;;;;;3.03;2.83;;;;;;;;;;5052897;28;20239;-86
2022/09/29 02:47:49;;;;;;;2.83;2.63;;;;;;;;;;5052641;28;20244;-87
2022/09/29 02:50:27;;;;;;;3.53;2.93;;;;;;;;;;5055014;28;20190;-87
2022/09/29 02:52:56;;;;;;;5.67;3.20;;;;;;;;;;5055554;28;20197;-87
2022/09/29 02:55:27;;;;;;;7.17;3.20;;;;;;;;;;5055592;28;20690;-87
2022/09/29 02:57:57;;;;;;;3.20;3.00;;;;;;;;;;5055238;28;20190;-87
2022/09/29 03:00:26;;;;;;;4.37;3.00;;;;;;;;;;5056151;28;20195;-87
2022/09/29 03:02:53;;;;;;;10.83;3.23;;;;;;;;;;5055211;28;20207;-87
2022/09/29 03:05:22;;;;;;;5.60;2.87;;;;;;;;;;5056280;28;20553;-88
2022/09/29 03:07:50;;;;;;;4.67;2.83;;;;;;;;;;5055073;28;20210;-87
2022/09/29 03:10:18;;;;;;;5.40;2.90;;;;;;;;;;5055392;28;20691;-87
2022/09/29 03:12:46;;;;;;;3.00;2.70;;;;;;;;;;5055697;28;20206;-87
2022/09/29 03:15:13;;;;;;;3.33;3.03;;;;;;;;;;5056081;28;20592;-86
2022/09/29 03:17:41;;;;;;;4.50;3.37;;;;;;;;;;5066174;28;20190;-87
2022/09/29 03:20:08;;;;;;;5.83;3.23;;;;;;;;;;5055357;28;20232;-87
2022/09/29 03:22:37;;;;;;;3.53;3.23;;;;;;;;;;5055239;28;20210;-86
2022/09/29 03:25:05;;;;;;;5.67;3.23;;;;;;;;;;5054485;28;20229;-87
2022/09/29 03:27:35;;;;;;;3.53;3.23;;;;;;;;;;5055131;28;20633;-87
2022/09/29 03:30:02;;;;;;;5.20;3.07;;;;;;;;;;5054806;28;20317;-87
2022/09/29 03:32:29;;;;;;;2.93;2.73;;;;;;;;;;5055223;28;20588;-86
2022/09/29 03:34:56;;;;;;;3.53;2.70;;;;;;;;;;5054134;28;20237;-88
2022/09/29 03:37:24;;;;;;;3.57;2.93;;;;;;;;;;5055382;28;20206;-87
2022/09/29 03:39:52;;;;;;;3.80;2.93;;;;;;;;;;5054363;28;20233;-87
2022/09/29 03:42:22;;;;;;;4.50;3.00;;;;;;;;;;5055251;28;20213;-87
2022/09/29 03:44:50;;;;;;;3.33;3.10;;;;;;;;;;5054222;28;20604;-87
2022/09/29 03:47:17;;;;;;;4.47;3.00;;;;;;;;;;5055204;28;20194;-87
2022/09/29 03:49:44;;;;;;;3.10;2.90;;;;;;;;;;5054303;28;20226;-87
2022/09/29 03:52:11;;;;;;;4.60;3.73;;;;;;;;;;5055108;28;20228;-87
2022/09/29 03:54:38;;;;;;;4.63;3.40;;;;;;;;;;5054058;28;20230;-88
2022/09/29 03:57:06;;;;;;;4.90;3.33;;;;;;;;;;5054642;28;20218;-87
2022/09/29 03:59:33;;;;;;;3.57;2.90;;;;;;;;;;5053985;28;20312;-87
2022/09/29 04:02:01;;;;;;;5.67;3.07;;;;;;;;;;5045888;28;20198;-86
2022/09/29 04:04:28;;;;;;;3.00;2.80;;;;;;;;;;5034188;28;20660;-87
2022/09/29 04:06:56;;;;;;;8.77;3.50;;;;;;;;;;5034860;28;20207;-87
2022/09/29 04:09:23;;;;;;;3.43;3.17;;;;;;;;;;5033994;28;20733;-86
2022/09/29 04:11:50;;;;;;;3.40;3.13;;;;;;;;;;5049022;28;20206;-88
2022/09/29 04:14:19;;;;;;;4.33;3.93;;;;;;;;;;5054152;28;20249;-89
2022/09/29 04:16:46;;;;;;;8.63;3.60;;;;;;;;;;5034837;28;20238;-89
2022/09/29 04:19:13;;;;;;;3.67;3.23;;;;;;;;;;5034464;28;20237;-88
2022/09/29 04:21:40;;;;;;;3.40;3.10;;;;;;;;;;5064434;28;20194;-88
2022/09/29 04:24:07;;;;;;;3.57;3.27;;;;;;;;;;5076571;28;20209;-87
2022/09/29 04:26:34;;;;;;;4.87;3.97;;;;;;;;;;5076665;28;20234;-88
2022/09/29 04:29:01;;;;;;;11.70;6.90;;;;;;;;;;5076205;28;20293;-87
2022/09/29 04:31:30;;;;;;;14.00;9.50;;;;;;;;;;5077709;28;20265;-87
2022/09/29 04:33:57;;;;;;;19.93;14.53;;;;;;;;;;5073088;28;20235;-87
2022/09/29 04:36:24;;;;;;;25.50;17.17;;;;;;;;;;5076590;28;20297;-87
2022/09/29 04:38:52;;;;;;;13.17;7.30;;;;;;;;;;5075149;28;20225;-86
2022/09/29 04:41:19;;;;;;;6.13;4.80;;;;;;;;;;5076729;28;20225;-86
2022/09/29 04:43:46;;;;;;;4.40;4.00;;;;;;;;;;5076402;28;20289;-87
2022/09/29 04:46:14;;;;;;;4.57;3.80;;;;;;;;;;5076794;28;20226;-87
2022/09/29 04:48:42;;;;;;;6.27;4.10;;;;;;;;;;5064499;28;20264;-85
2022/09/29 04:51:10;;;;;;;3.33;3.03;;;;;;;;;;5062697;28;20206;-85
2022/09/29 04:53:37;;;;;;;5.33;3.57;;;;;;;;;;5054880;28;20230;-86
2022/09/29 04:56:07;;;;;;;3.67;3.37;;;;;;;;;;5035429;28;20253;-85
2022/09/29 04:58:35;;;;;;;7.03;3.57;;;;;;;;;;5046193;28;20697;-84
2022/09/29 05:01:06;;;;;;;3.83;3.50;;;;;;;;;;5055272;28;20190;-86
2022/09/29 05:03:33;;;;;;;5.53;4.00;;;;;;;;;;5054432;28;20260;-86
2022/09/29 05:06:01;;;;;;;3.53;3.27;;;;;;;;;;5055040;28;20222;-85
2022/09/29 05:08:28;;;;;;;4.50;3.83;;;;;;;;;;5054152;28;20767;-85
2022/09/29 05:10:55;;;;;;;11.43;7.60;;;;;;;;;;5054292;28;20206;-87
2022/09/29 05:13:23;;;;;;;8.97;7.17;;;;;;;;;;5054831;28;20226;-87
2022/09/29 05:15:50;;;;;;;8.93;5.67;;;;;;;;;;5055530;28;20234;-86
2022/09/29 05:18:17;;;;;;;5.93;4.30;;;;;;;;;;5054146;28;20236;-83
2022/09/29 05:20:45;;;;;;;8.83;4.50;;;;;;;;;;5053610;28;20206;-84
2022/09/29 05:23:13;;;;;;;5.27;4.20;;;;;;;;;;5049042;28;20252;-83
2022/09/29 05:25:40;;;;;;;4.57;4.17;;;;;;;;;;5040084;28;20226;-85
2022/09/29 05:28:08;;;;;;;7.40;4.40;;;;;;;;;;5032057;28;20606;-84
2022/09/29 05:30:35;;;;;;;4.57;4.10;;;;;;;;;;5041899;28;20216;-84
2022/09/29 05:33:02;;;;;;;5.83;4.17;;;;;;;;;;5037637;28;20234;-84
2022/09/29 05:35:29;;;;;;;5.90;4.33;;;;;;;;;;5036913;28;20226;-84
2022/09/29 05:37:56;;;;;;;6.53;3.93;;;;;;;;;;5033945;28;20222;-84
2022/09/29 05:40:25;;;;;;;7.70;3.87;;;;;;;;;;5033989;28;20211;-85
2022/09/29 05:42:53;;;;;;;4.33;3.93;;;;;;;;;;5032829;28;20260;-84
2022/09/29 05:45:20;;;;;;;5.27;4.63;;;;;;;;;;5032901;28;20241;-85
2022/09/29 05:47:47;;;;;;;5.10;4.37;;;;;;;;;;5032167;28;20209;-84
2022/09/29 05:50:14;;;;;;;4.97;4.47;;;;;;;;;;5032915;28;20206;-84
2022/09/29 05:52:41;;;;;;;5.33;4.73;;;;;;;;;;5032527;28;20210;-84
2022/09/29 05:55:09;;;;;;;5.37;4.70;;;;;;;;;;5032834;28;20261;-85
2022/09/29 05:57:38;;;;;;;5.77;4.57;;;;;;;;;;5032826;28;20230;-84
2022/09/29 06:00:06;;;;;;;6.50;5.00;;;;;;;;;;5032409;28;20607;-84
2022/09/29 06:02:33;;;;;;;5.40;4.90;;;;;;;;;;5032810;28;20210;-84
2022/09/29 06:05:00;;;;;;;15.53;12.73;;;;;;;;;;5032835;28;20234;-86
2022/09/29 06:07:27;;;;;;;11.90;7.27;;;;;;;;;;5033617;28;20214;-86
2022/09/29 06:09:54;;;;;;;15.60;8.70;;;;;;;;;;5033048;28;20238;-86
2022/09/29 06:12:21;;;;;;;13.43;9.93;;;;;;;;;;5033853;28;20277;-86
2022/09/29 06:14:50;;;;;;;12.93;8.67;;;;;;;;;;5032341;28;20245;-86
2022/09/29 06:17:17;;;;;;;10.73;6.93;;;;;;;;;;5040472;28;20225;-85
2022/09/29 06:19:44;;;;;;;7.70;6.60;;;;;;;;;;5052818;28;20237;-87
2022/09/29 06:22:11;;;;;;;8.80;5.50;;;;;;;;;;5053701;28;20197;-86
2022/09/29 06:24:38;;;;;;;7.70;4.93;;;;;;;;;;5053544;28;20233;-86
2022/09/29 06:27:05;;;;;;;5.90;5.33;;;;;;;;;;5057193;28;20209;-85
2022/09/29 06:29:32;;;;;;;10.53;5.23;;;;;;;;;;5056401;28;20238;-87
2022/09/29 06:32:01;;;;;;;8.90;4.93;;;;;;;;;;5056520;28;20209;-86
2022/09/29 06:34:28;;;;;;;5.47;4.50;;;;;;;;;;5056178;28;20230;-86
2022/09/29 06:39:40;;;;;;;7.20;6.30;;;;;;;;;;5056302;28;20237;-86
2022/09/29 06:42:07;;;;;;;9.47;6.13;;;;;;;;;;5057377;28;20214;-84
2022/09/29 06:44:34;;;;;;;6.77;5.70;;;;;;;;;;5056354;28;20241;-86
2022/09/29 06:47:02;;;;;;;9.47;6.63;;;;;;;;;;5057166;28;20193;-84
2022/09/29 06:49:29;;;;;;;9.13;7.07;;;;;;;;;;5055931;28;20241;-83
2022/09/29 06:51:56;;;;;;;7.20;6.50;;;;;;;;;;5056979;28;20217;-82
2022/09/29 06:54:24;;;;;;;12.63;6.40;;;;;;;;;;5056275;28;20244;-84
2022/09/29 06:56:52;;;;;;;9.20;7.10;;;;;;;;;;5056020;28;20284;-82
2022/09/29 06:59:19;;;;;;;11.93;7.90;;;;;;;;;;5055612;28;20234;-83
2022/09/29 07:01:48;;;;;;;10.03;7.33;;;;;;;;;;5055852;28;20888;-84
2022/09/29 07:04:17;;;;;;;9.27;6.90;;;;;;;;;;5056124;28;20245;-84
2022/09/29 07:06:45;;;;;;;13.27;6.70;;;;;;;;;;5062093;28;20291;-83
2022/09/29 07:09:14;;;;;;;13.33;7.93;;;;;;;;;;5056887;28;20252;-85
2022/09/29 07:11:45;;;;;;;11.73;8.27;;;;;;;;;;5057062;28;20228;-85
2022/09/29 07:14:12;;;;;;;11.30;8.57;;;;;;;;;;5055883;28;20230;-85
2022/09/29 07:16:39;;;;;;;8.87;7.77;;;;;;;;;;5056528;28;20230;-84
2022/09/29 07:19:06;;;;;;;11.37;8.40;;;;;;;;;;5055617;28;20244;-85
2022/09/29 07:21:34;;;;;;;13.13;9.50;;;;;;;;;;5056362;28;20206;-85
2022/09/29 07:24:02;;;;;;;16.77;9.93;;;;;;;;;;5055751;28;20238;-85
2022/09/29 07:26:29;;;;;;;14.50;10.33;;;;;;;;;;5056863;28;20859;-86
2022/09/29 07:28:56;;;;;;;20.27;13.80;;;;;;;;;;5055368;28;20232;-85
2022/09/29 07:31:23;;;;;;;26.77;16.33;;;;;;;;;;5053936;28;20209;-84
2022/09/29 07:33:51;;;;;;;24.93;15.77;;;;;;;;;;5054294;28;20234;-85
2022/09/29 07:36:19;;;;;;;23.13;15.53;;;;;;;;;;5054824;28;20222;-85
2022/09/29 07:38:48;;;;;;;20.33;13.37;;;;;;;;;;5054649;28;20249;-85
2022/09/29 07:41:15;;;;;;;14.00;10.30;;;;;;;;;;5062315;28;20202;-85
2022/09/29 07:43:42;;;;;;;11.20;9.77;;;;;;;;;;5057466;28;20233;-85
2022/09/29 07:46:10;;;;;;;16.30;11.17;;;;;;;;;;5056720;28;20238;-85
2022/09/29 07:48:37;;;;;;;14.03;11.07;;;;;;;;;;5064397;28;20243;-86
2022/09/29 07:51:06;;;;;;;20.17;11.67;;;;;;;;;;5076261;28;20210;-85
2022/09/29 07:53:33;;;;;;;16.27;10.83;;;;;;;;;;5075631;28;20648;-85
2022/09/29 07:56:04;;;;;;;18.00;11.30;;;;;;;;;;5076386;28;20233;-85
2022/09/29 07:58:32;;;;;;;15.33;10.60;;;;;;;;;;5074588;28;20240;-85
2022/09/29 08:00:59;;;;;;;15.33;11.40;;;;;;;;;;5077239;28;20703;-85
2022/09/29 08:03:26;;;;;;;14.23;10.70;;;;;;;;;;5077633;28;20268;-83
2022/09/29 08:05:53;;;;;;;16.60;11.40;;;;;;;;;;5076391;28;20241;-85
2022/09/29 08:08:21;;;;;;;17.50;12.00;;;;;;;;;;5075114;28;20233;-85
2022/09/29 08:10:48;;;;;;;15.37;11.50;;;;;;;;;;5076000;28;20216;-86
2022/09/29 08:13:16;;;;;;;17.60;11.73;;;;;;;;;;5075297;28;20237;-85
2022/09/29 08:15:43;;;;;;;19.93;11.43;;;;;;;;;;5075641;28;20229;-85
2022/09/29 08:18:10;;;;;;;15.40;10.57;;;;;;;;;;5073352;28;20236;-85
2022/09/29 08:20:37;;;;;;;16.23;11.00;;;;;;;;;;5054665;28;20210;-82
2022/09/29 08:23:05;;;;;;;15.67;11.60;;;;;;;;;;5054495;28;20234;-82
2022/09/29 08:25:34;;;;;;;16.10;11.63;;;;;;;;;;5054560;28;20232;-82
2022/09/29 08:28:01;;;;;;;16.83;11.67;;;;;;;;;;5054261;28;20238;-85
2022/09/29 08:30:29;;;;;;;16.20;10.90;;;;;;;;;;5054047;28;20217;-85
2022/09/29 08:32:57;;;;;;;14.73;11.17;;;;;;;;;;5054840;28;20293;-86
2022/09/29 08:35:24;;;;;;;17.23;10.50;;;;;;;;;;5056877;28;20230;-85
2022/09/29 08:37:54;;;;;;;15.50;10.93;;;;;;;;;;5054406;28;20275;-85
2022/09/29 08:40:21;;;;;;;13.73;10.90;;;;;;;;;;5054835;28;20216;-85
2022/09/29 08:42:55;;;;;;;16.23;11.80;;;;;;;;;;5055178;28;20216;-85
2022/09/29 08:45:25;;;;;;;16.53;12.50;;;;;;;;;;5054042;28;20676;-85
2022/09/29 08:47:57;;;;;;;14.87;10.90;;;;;;;;;;5052962;28;20206;-85
2022/09/29 08:50:28;;;;;;;16.23;11.30;;;;;;;;;;5054201;28;20210;-85
2022/09/29 08:56:00;;;;;;;15.30;10.97;;;;;;;;;;5046850;28;20213;-85
2022/09/29 08:58:27;;;;;;;16.60;11.43;;;;;;;;;;5051652;28;20241;-85
2022/09/29 09:00:59;;;;;;;14.77;11.53;;;;;;;;;;5054268;28;20217;-85
2022/09/29 09:03:58;;;;;;;14.07;10.33;;;;;;;;;;5052832;28;20229;-86
2022/09/29 09:06:29;;;;;;;15.70;10.77;;;;;;;;;;5054172;28;20233;-85
2022/09/29 09:09:06;;;;;;;13.50;10.60;;;;;;;;;;5053237;28;20226;-86
2022/09/29 09:11:54;;;;;;;18.63;11.17;;;;;;;;;;5053841;28;20202;-85
2022/09/29 09:14:29;;;;;;;14.07;10.63;;;;;;;;;;5050214;28;20233;-85
2022/09/29 09:17:04;;;;;;;13.67;10.60;;;;;;;;;;5053283;28;20216;-85
2022/09/29 09:19:41;;;;;;;12.70;10.03;;;;;;;;;;5052653;28;20221;-85
2022/09/29 09:22:15;;;;;;;11.87;9.10;;;;;;;;;;5054050;28;20216;-85
2022/09/29 09:24:45;;;;;;;11.77;9.87;;;;;;;;;;5053468;28;20233;-85
2022/09/29 09:27:14;;;;;;;10.60;9.40;;;;;;;;;;5053511;28;20193;-85
2022/09/29 09:29:43;;;;;;;12.77;9.30;;;;;;;;;;5052794;28;20241;-85
2022/09/29 09:32:13;;;;;;;12.70;9.40;;;;;;;;;;5053216;28;20209;-86
2022/09/29 09:34:43;;;;;;;12.17;9.63;;;;;;;;;;5053154;28;20280;-85
2022/09/29 09:37:15;;;;;;;10.93;8.80;;;;;;;;;;5054207;28;20276;-85
2022/09/29 09:39:46;;;;;;;12.93;9.03;;;;;;;;;;5062896;28;20657;-85
2022/09/29 09:42:15;;;;;;;10.90;9.00;;;;;;;;;;5071270;28;20208;-83
2022/09/29 09:44:45;;;;;;;10.83;9.30;;;;;;;;;;5072821;28;20233;-84
2022/09/29 09:47:21;;;;;;;11.77;8.33;;;;;;;;;;5069896;28;20209;-84
2022/09/29 09:49:50;;;;;;;11.77;8.33;;;;;;;;;;5057323;28;20237;-85
2022/09/29 09:52:21;;;;;;;9.23;7.93;;;;;;;;;;5052515;28;20206;-85
2022/09/29 09:54:51;;;;;;;10.23;7.87;;;;;;;;;;5054644;28;20245;-85
2022/09/29 09:57:38;;;;;;;9.17;8.23;;;;;;;;;;5052757;28;20225;-85
2022/09/29 10:00:09;;;;;;;10.07;8.10;;;;;;;;;;5060384;28;20228;-86
2022/09/29 10:02:38;;;;;;;8.47;7.63;;;;;;;;;;5077150;28;20571;-85
2022/09/29 10:05:05;;;;;;;9.47;8.27;;;;;;;;;;5076708;28;20601;-85
2022/09/29 10:07:33;;;;;;;12.73;8.47;;;;;;;;;;5085931;28;20205;-86
2022/09/29 10:10:03;;;;;;;10.03;8.10;;;;;;;;;;5062733;28;20603;-84
2022/09/29 10:12:30;;;;;;;12.47;7.77;;;;;;;;;;5056254;28;20808;-85
2022/09/29 10:14:59;;;;;;;10.33;7.57;;;;;;;;;;5055751;28;20706;-85
2022/09/29 10:17:28;;;;;;;7.87;7.07;;;;;;;;;;5056332;28;20229;-85
2022/09/29 10:19:57;;;;;;;8.13;6.63;;;;;;;;;;5056446;28;20234;-85
2022/09/29 10:22:25;;;;;;;7.27;6.13;;;;;;;;;;5056408;28;20575;-86
2022/09/29 10:24:57;;;;;;;6.77;5.73;;;;;;;;;;5056038;28;20305;-85
2022/09/29 10:27:25;;;;;;;9.13;5.80;;;;;;;;;;5056615;28;20202;-86
2022/09/29 10:29:53;;;;;;;5.63;5.13;;;;;;;;;;5056388;28;20608;-86
2022/09/29 10:32:23;;;;;;;6.33;4.60;;;;;;;;;;5056189;28;20206;-84
2022/09/29 10:34:53;;;;;;;5.57;5.00;;;;;;;;;;5055151;28;20246;-84
2022/09/29 10:37:23;;;;;;;9.37;4.70;;;;;;;;;;5055430;28;20214;-84
2022/09/29 10:39:51;;;;;;;6.60;4.40;;;;;;;;;;5055620;28;20717;-84
2022/09/29 10:42:23;;;;;;;8.20;5.17;;;;;;;;;;5056997;28;20216;-84
2022/09/29 10:44:52;;;;;;;6.53;4.67;;;;;;;;;;5055253;28;20715;-84
2022/09/29 10:47:20;;;;;;;4.03;3.67;;;;;;;;;;5056164;28;20197;-84
2022/09/29 10:49:47;;;;;;;6.47;4.17;;;;;;;;;;5056258;28;20234;-84
2022/09/29 10:52:21;;;;;;;4.37;3.33;;;;;;;;;;5056612;28;20209;-85
2022/09/29 10:54:53;;;;;;;4.10;3.20;;;;;;;;;;5056311;28;20244;-84
2022/09/29 10:57:25;;;;;;;4.40;3.40;;;;;;;;;;5055772;28;20206;-83
2022/09/29 10:59:53;;;;;;;3.63;3.30;;;;;;;;;;5065820;28;20233;-81
2022/09/29 11:02:24;;;;;;;4.03;2.92;;;;;;;;;;5058053;28;20304;-82
2022/09/29 11:04:51;;;;;;;4.20;2.72;;;;;;;;;;5057038;28;20244;-82
2022/09/29 11:07:18;;;;;;;4.15;2.65;;;;;;;;;;5056666;28;20280;-85
2022/09/29 11:09:45;;;;;;;3.45;2.78;;;;;;;;;;5056172;28;20237;-84
2022/09/29 11:12:31;;;;;;;3.17;2.88;;;;;;;;;;5056029;28;20198;-86
2022/09/29 11:14:59;;;;;;;3.22;2.63;;;;;;;;;;5055895;28;20639;-83
2022/09/29 11:17:27;;;;;;;5.40;2.53;;;;;;;;;;5056015;28;20297;-84
2022/09/29 11:19:55;;;;;;;2.88;2.58;;;;;;;;;;5055389;28;20589;-84
2022/09/29 11:22:33;;;;;;;4.35;2.67;;;;;;;;;;5055800;28;20218;-84
2022/09/29 11:25:18;;;;;;;4.00;2.92;;;;;;;;;;5055032;28;20238;-82
2022/09/29 11:28:01;;;;;;;4.60;3.05;;;;;;;;;;5055407;28;20227;-86
2022/09/29 11:30:33;;;;;;;6.72;3.22;;;;;;;;;;5056322;28;20198;-86
2022/09/29 11:33:05;;;;;;;6.35;5.65;;;;;;;;;;5056820;28;20213;-86
2022/09/29 11:35:37;;;;;;;3.38;3.08;;;;;;;;;;5065253;28;20234;-85
2022/09/29 11:38:19;;;;;;;4.65;2.95;;;;;;;;;;5072282;28;20238;-84
2022/09/29 11:40:51;;;;;;;3.92;2.88;;;;;;;;;;5075984;28;20197;-85
2022/09/29 11:43:29;;;;;;;5.07;2.70;;;;;;;;;;5076952;28;20229;-85
2022/09/29 11:46:00;;;;;;;4.10;2.75;;;;;;;;;;5065994;28;20230;-86
2022/09/29 11:48:46;;;;;;;4.13;2.78;;;;;;;;;;5057698;28;20238;-86
2022/09/29 11:51:16;;;;;;;3.33;2.72;;;;;;;;;;5056630;28;20225;-86
2022/09/29 11:54:02;;;;;;;2.65;2.35;;;;;;;;;;5055439;28;20771;-85
2022/09/29 11:56:31;;;;;;;3.85;2.47;;;;;;;;;;5055654;28;20237;-86
2022/09/29 11:59:10;;;;;;;2.42;2.22;;;;;;;;;;5054646;28;20237;-86
2022/09/29 12:01:43;;;;;;;2.50;2.25;;;;;;;;;;5065057;28;20201;-87
2022/09/29 12:04:17;;;;;;;3.67;2.45;;;;;;;;;;5055860;28;20624;-86
2022/09/29 12:06:54;;;;;;;4.22;2.50;;;;;;;;;;5055932;28;20226;-86
2022/09/29 12:09:41;;;;;;;2.33;2.08;;;;;;;;;;5054320;28;20229;-87
2022/09/29 12:12:11;;;;;;;3.90;2.25;;;;;;;;;;5055498;28;20190;-87
2022/09/29 12:14:54;;;;;;;4.03;2.90;;;;;;;;;;5054179;28;20245;-87
2022/09/29 12:17:22;;;;;;;3.80;2.97;;;;;;;;;;5055040;28;20194;-87
2022/09/29 12:19:51;;;;;;;6.75;3.17;;;;;;;;;;5054263;28;20248;-86
2022/09/29 12:22:19;;;;;;;4.60;3.15;;;;;;;;;;5054598;28;20210;-85
2022/09/29 12:24:48;;;;;;;3.50;3.20;;;;;;;;;;5053910;28;20233;-78
2022/09/29 12:27:17;;;;;;;5.70;3.40;;;;;;;;;;5053291;28;20216;-77
2022/09/29 12:29:47;;;;;;;5.85;3.47;;;;;;;;;;5054026;28;20238;-86
2022/09/29 12:32:17;;;;;;;4.50;3.05;;;;;;;;;;5054998;28;20558;-86
2022/09/29 12:34:47;;;;;;;6.45;2.92;;;;;;;;;;5054154;28;20291;-86
2022/09/29 12:37:17;;;;;;;3.42;2.95;;;;;;;;;;5054019;28;20206;-86
2022/09/29 12:39:47;;;;;;;4.45;3.20;;;;;;;;;;5053793;28;20236;-86
2022/09/29 12:42:21;;;;;;;4.47;3.08;;;;;;;;;;5054812;28;20233;-84
2022/09/29 12:44:51;;;;;;;4.03;3.17;;;;;;;;;;5054057;28;20744;-87
2022/09/29 12:47:23;;;;;;;3.83;3.03;;;;;;;;;;5054804;28;20210;-87
2022/09/29 12:49:57;;;;;;;4.53;3.00;;;;;;;;;;5054383;28;20237;-86
2022/09/29 12:52:28;;;;;;;5.40;3.08;;;;;;;;;;5054843;28;20709;-86
2022/09/29 12:54:56;;;;;;;5.60;2.95;;;;;;;;;;5056187;28;20298;-85
2022/09/29 12:57:25;;;;;;;4.30;3.17;;;;;;;;;;5075117;28;20210;-84
2022/09/29 12:59:56;;;;;;;3.67;2.80;;;;;;;;;;5074259;28;20214;-84
2022/09/29 13:02:38;;;;;;;4.72;2.90;;;;;;;;;;5073804;28;20237;-83
2022/09/29 13:05:23;;;;;;;3.47;3.00;;;;;;;;;;5075254;28;20301;-84
2022/09/29 13:08:05;;;;;;;5.03;3.13;;;;;;;;;;5051452;28;20216;-87
2022/09/29 13:10:52;;;;;;;2.72;2.53;;;;;;;;;;5054904;28;20267;-86
2022/09/29 13:13:40;;;;;;;3.78;2.75;;;;;;;;;;5054742;28;20581;-86
2022/09/29 13:16:12;;;;;;;3.85;2.60;;;;;;;;;;5055045;28;20225;-88
2022/09/29 13:18:45;;;;;;;4.82;3.10;;;;;;;;;;5054779;28;20240;-87
2022/09/29 13:21:18;;;;;;;3.10;2.80;;;;;;;;;;5055477;28;20194;-87
2022/09/29 13:23:55;;;;;;;2.65;2.45;;;;;;;;;;5054079;28;20238;-85
2022/09/29 13:26:29;;;;;;;7.20;2.92;;;;;;;;;;5053698;28;20233;-82
2022/09/29 13:28:57;;;;;;;3.25;2.70;;;;;;;;;;5052848;28;20229;-82
2022/09/29 13:31:28;;;;;;;4.10;2.70;;;;;;;;;;5054284;28;20678;-89
2022/09/29 13:33:56;;;;;;;2.78;2.50;;;;;;;;;;5054851;28;20230;-90
2022/09/29 13:36:24;;;;;;;4.00;2.50;;;;;;;;;;5055146;28;20234;-87
2022/09/29 13:38:55;;;;;;;2.78;2.28;;;;;;;;;;5053231;28;20236;-85
2022/09/29 13:41:36;;;;;;;4.28;2.83;;;;;;;;;;5054650;28;20212;-83
2022/09/29 13:44:21;;;;;;;2.80;2.50;;;;;;;;;;5052561;28;20237;-83
2022/09/29 13:46:49;;;;;;;2.55;2.35;;;;;;;;;;5052838;28;20273;-84
2022/09/29 13:49:24;;;;;;;3.20;2.90;;;;;;;;;;5053241;28;20601;-84
2022/09/29 13:51:52;;;;;;;2.90;2.60;;;;;;;;;;5054557;28;20566;-85
2022/09/29 13:54:40;;;;;;;3.38;2.58;;;;;;;;;;5054281;28;20237;-87
2022/09/29 13:57:28;;;;;;;2.78;2.53;;;;;;;;;;5055418;28;20196;-88
2022/09/29 14:00:19;;;;;;;3.97;2.50;;;;;;;;;;5055517;28;20720;-85
2022/09/29 14:02:50;;;;;;;5.07;2.70;;;;;;;;;;5056606;28;20213;-84
2022/09/29 14:05:36;;;;;;;3.03;2.47;;;;;;;;;;5056448;28;20233;-85
2022/09/29 14:08:14;;;;;;;4.13;3.03;;;;;;;;;;5055334;28;20234;-85
2022/09/29 14:10:43;;;;;;;3.30;2.60;;;;;;;;;;5054810;28;20202;-86
2022/09/29 14:13:13;;;;;;;3.30;2.90;;;;;;;;;;5052858;28;20351;-84
2022/09/29 14:15:42;;;;;;;3.92;2.88;;;;;;;;;;5053657;28;20218;-86
2022/09/29 14:18:17;;;;;;;4.75;2.88;;;;;;;;;;5052620;28;20245;-85
2022/09/29 14:20:58;;;;;;;5.28;2.97;;;;;;;;;;5054545;28;20182;-86
2022/09/29 14:23:40;;;;;;;3.75;2.60;;;;;;;;;;5051915;28;20299;-85
2022/09/29 14:26:21;;;;;;;4.82;2.70;;;;;;;;;;5032240;28;20238;-85
2022/09/29 14:28:49;;;;;;;5.20;3.50;;;;;;;;;;5032140;28;20227;-84
2022/09/29 14:31:21;;;;;;;3.58;2.80;;;;;;;;;;5050303;28;20669;-85
2022/09/29 14:33:52;;;;;;;3.80;2.72;;;;;;;;;;5047259;28;20266;-85
2022/09/29 14:36:20;;;;;;;3.08;2.85;;;;;;;;;;5045170;28;20226;-85
2022/09/29 14:38:48;;;;;;;6.28;3.17;;;;;;;;;;5051672;28;20225;-84
2022/09/29 14:41:22;;;;;;;4.32;2.92;;;;;;;;;;5049982;28;20567;-84
2022/09/29 14:43:51;;;;;;;4.03;2.78;;;;;;;;;;5051613;28;20310;-84
2022/09/29 14:52:15;;;;;;;4.50;3.30;;;;;;;;;;5056028;28;20202;-83
2022/09/29 14:54:47;;;;;;;3.15;2.60;;;;;;;;;;5054292;28;20713;-83
2022/09/29 14:57:24;;;;;;;4.72;2.92;;;;;;;;;;5051143;28;20253;-83
2022/09/29 14:59:57;;;;;;;3.65;2.55;;;;;;;;;;5043797;28;20231;-82
2022/09/29 15:02:26;;;;;;;3.30;2.58;;;;;;;;;;5056986;28;20850;-81
2022/09/29 15:04:54;;;;;;;5.30;2.85;;;;;;;;;;5059290;28;20233;-84
2022/09/29 15:07:23;;;;;;;5.95;2.92;;;;;;;;;;5063361;28;20213;-83
2022/09/29 15:09:51;;;;;;;4.18;2.70;;;;;;;;;;5061442;28;20718;-85